Sims, Kansas
Current Conditions -  °F | °C
As of 11:53 PM on Friday 24 Oct 2014 (Local Time) from KJLN Reporting Station
Clear Clear  
Wind Chill: 64°   Ceiling: Unl
Heat Index: 64°   Visibility: 10mi
Dew Point: 59°   Wind: 9mph
Humidity: 84%   Direction: 190°S
Pressure: 30.05"   Gusts: NA
Location:  37.0595°N, 94.7764°W
Report Text: KJLN 250453Z AUTO 19008KT 10SM CLR 18/15 A3005 RMK AO2 SLP169 T01780150
Loading
Personal Weather Stations






























Interactive Weather Map
Tropical Storm Tracking
New forecast layout! Learn more

10-Day Weather Forecast

Advertisements
Track Severe Weather on mobile